Time;durP1;ratioP1;P1;durP2;ratioP2;P2;SDS_P1;SDS_P2;PMS_P1;PMS_P2;Temp;Humidity;BMP_temperature;BMP_pressure;BME280_temperature;BME280_humidity;BME280_pressure;Samples;Min_cycle;Max_cycle;Signal;HPM_P1;HPM_P2
2021/08/31 00:02:18;;;;;;;10.50;9.40;;;;;;;17.82;98.00;96620.78;5052506;28;20183;-58
2021/08/31 00:04:43;;;;;;;10.97;9.87;;;;;;;17.81;98.36;96623.72;5052547;28;20684;-58
2021/08/31 00:07:09;;;;;;;9.77;8.70;;;;;;;17.67;98.91;96623.44;5055883;28;20252;-59
2021/08/31 00:09:34;;;;;;;9.90;9.00;;;;;;;17.73;99.06;96630.34;5070713;28;20754;-58
2021/08/31 00:12:00;;;;;;;10.40;9.50;;;;;;;17.59;99.38;96629.28;5052907;28;20201;-59
2021/08/31 00:14:25;;;;;;;12.60;8.83;;;;;;;17.70;98.86;96636.19;5052623;28;20187;-59
2021/08/31 00:16:50;;;;;;;9.80;8.73;;;;;;;17.74;99.23;96631.94;5053127;28;20176;-59
2021/08/31 00:19:16;;;;;;;9.73;8.83;;;;;;;17.70;99.12;96636.19;5052937;28;20230;-59
2021/08/31 00:21:41;;;;;;;11.20;10.20;;;;;;;17.71;98.68;96629.00;5053139;28;20220;-59
2021/08/31 00:24:07;;;;;;;10.70;9.60;;;;;;;17.74;98.46;96633.78;5052394;28;20203;-59
2021/08/31 00:26:32;;;;;;;11.90;10.70;;;;;;;17.55;99.57;96627.38;5072906;28;20179;-58
2021/08/31 00:28:58;;;;;;;10.17;9.27;;;;;;;17.50;99.66;96640.66;5073005;28;20227;-59
2021/08/31 00:31:23;;;;;;;12.20;9.97;;;;;;;17.60;99.76;96632.72;5073234;28;20536;-59
2021/08/31 00:33:48;;;;;;;11.23;10.13;;;;;;;17.58;99.65;96632.16;5072491;28;20167;-59
2021/08/31 00:36:14;;;;;;;12.93;11.63;;;;;;;17.63;98.94;96632.97;5073090;28;20190;-60
2021/08/31 00:38:39;;;;;;;12.40;11.10;;;;;;;17.57;99.50;96639.38;5073166;28;20344;-59
2021/08/31 00:41:05;;;;;;;11.07;9.97;;;;;;;17.41;100.00;96635.03;5053964;28;20175;-59
2021/08/31 00:43:56;;;;;;;10.80;9.80;;;;;;;17.57;100.00;96630.59;5052380;28;20294;-58
2021/08/31 00:46:22;;;;;;;12.70;11.30;;;;;;;17.61;99.62;96635.09;5050976;28;20342;-59
2021/08/31 00:48:52;;;;;;;12.60;10.93;;;;;;;17.64;99.61;96639.09;5052939;28;20500;-59
2021/08/31 00:51:20;;;;;;;16.47;12.33;;;;;;;17.78;98.93;96633.00;5055050;28;20168;-58
2021/08/31 00:53:47;;;;;;;11.53;10.33;;;;;;;17.62;99.34;96636.72;5071774;28;20891;-58
2021/08/31 00:56:13;;;;;;;11.87;10.77;;;;;;;17.64;99.61;96637.25;5072550;28;20452;-58
2021/08/31 00:58:38;;;;;;;10.97;9.73;;;;;;;17.74;98.88;96633.78;5072654;28;20409;-58
2021/08/31 01:01:04;;;;;;;12.10;10.90;;;;;;;17.73;98.96;96634.88;5072901;28;20629;-59
2021/08/31 01:03:30;;;;;;;12.70;11.40;;;;;;;17.74;98.87;96639.09;5072408;28;20217;-59
2021/08/31 01:06:00;;;;;;;12.53;11.23;;;;;;;17.78;98.37;96646.31;5072625;28;20425;-59
2021/08/31 01:08:26;;;;;;;12.10;10.90;;;;;;;17.68;99.25;96643.66;5071640;28;20222;-59
2021/08/31 01:10:53;;;;;;;14.13;12.63;;;;;;;17.58;99.39;96648.13;5052532;28;20414;-59
2021/08/31 01:13:19;;;;;;;13.27;11.97;;;;;;;17.53;100.00;96643.59;5055767;28;20513;-59
2021/08/31 01:15:45;;;;;;;17.00;13.67;;;;;;;17.44;100.00;96639.81;5055988;28;20444;-58
2021/08/31 01:18:21;;;;;;;15.90;14.33;;;;;;;17.56;100.00;96639.59;5056208;28;20422;-58
2021/08/31 01:20:51;;;;;;;15.93;13.33;;;;;;;17.58;99.69;96637.47;5055933;28;20175;-59
2021/08/31 01:23:18;;;;;;;15.17;13.60;;;;;;;17.51;100.00;96644.91;5055666;28;20767;-59
2021/08/31 01:25:44;;;;;;;15.00;13.50;;;;;;;17.46;100.00;96640.38;5055663;28;20442;-59
2021/08/31 01:28:18;;;;;;;14.23;12.83;;;;;;;17.48;100.00;96650.75;5059027;28;20417;-59
2021/08/31 01:30:46;;;;;;;17.60;15.70;;;;;;;17.62;100.00;96646.53;5075833;28;20801;-59
2021/08/31 01:33:11;;;;;;;15.30;13.40;;;;;;;17.54;99.65;96645.19;5075558;28;20762;-59
2021/08/31 01:35:37;;;;;;;14.80;13.30;;;;;;;17.48;100.00;96649.69;5075653;28;20424;-60
2021/08/31 01:38:02;;;;;;;18.30;14.87;;;;;;;17.45;99.97;96644.88;5075926;28;20170;-58
2021/08/31 01:40:28;;;;;;;18.67;15.27;;;;;;;17.51;99.85;96650.22;5075522;28;20179;-59
2021/08/31 01:42:53;;;;;;;15.53;13.87;;;;;;;17.48;99.64;96644.38;5072113;28;20179;-59
2021/08/31 01:45:18;;;;;;;15.50;14.00;;;;;;;17.38;100.00;96646.97;5067576;28;20230;-59
2021/08/31 01:47:44;;;;;;;19.30;15.17;;;;;;;17.48;100.00;96653.41;5075698;28;20240;-59
2021/08/31 01:50:10;;;;;;;18.17;14.93;;;;;;;17.54;100.00;96653.16;5075441;28;20193;-59
2021/08/31 01:52:37;;;;;;;16.80;15.10;;;;;;;17.56;100.00;96652.88;5075054;28;20175;-59
2021/08/31 01:55:05;;;;;;;16.90;15.10;;;;;;;17.59;99.76;96652.38;5075316;28;20182;-59
2021/08/31 01:57:30;;;;;;;16.80;14.87;;;;;;;17.65;99.65;96654.78;5075487;28;20408;-59
2021/08/31 01:59:55;;;;;;;17.83;15.93;;;;;;;17.71;99.71;96653.75;5074649;28;20486;-59
2021/08/31 02:02:21;;;;;;;17.00;15.13;;;;;;;17.59;99.50;96652.38;5075222;28;20192;-58
2021/08/31 02:04:46;;;;;;;18.73;16.77;;;;;;;17.66;99.78;96648.41;5074747;28;20575;-58
2021/08/31 02:07:11;;;;;;;16.17;14.47;;;;;;;17.74;98.80;96653.22;5075320;28;20166;-59
2021/08/31 02:09:37;;;;;;;16.50;14.70;;;;;;;17.71;98.68;96648.44;5075029;28;20179;-59
2021/08/31 02:12:02;;;;;;;14.67;13.07;;;;;;;17.75;98.91;96646.84;5075002;28;20181;-58
2021/08/31 02:14:28;;;;;;;16.77;15.20;;;;;;;17.64;99.07;96647.06;5065282;28;20198;-59
2021/08/31 02:16:53;;;;;;;14.17;12.60;;;;;;;17.60;99.09;96656.63;5055043;28;20237;-58
2021/08/31 02:19:18;;;;;;;17.27;15.47;;;;;;;17.56;99.29;96666.19;5054999;28;20176;-59
2021/08/31 02:21:44;;;;;;;15.60;14.00;;;;;;;17.55;99.01;96654.78;5054857;28;20581;-59
2021/08/31 02:24:10;;;;;;;17.70;15.90;;;;;;;17.54;99.04;96661.13;5053467;28;20195;-60
2021/08/31 02:26:35;;;;;;;18.20;14.30;;;;;;;17.41;99.73;96658.97;5054983;28;20175;-59
2021/08/31 02:29:01;;;;;;;15.37;13.77;;;;;;;17.48;99.91;96662.97;5062040;28;20526;-59
2021/08/31 02:31:26;;;;;;;15.10;13.50;;;;;;;17.54;99.17;96652.38;5074934;28;20175;-59
2021/08/31 02:33:51;;;;;;;15.77;14.17;;;;;;;17.54;99.15;96655.03;5074307;28;20203;-59
2021/08/31 02:36:17;;;;;;;18.70;16.70;;;;;;;17.62;98.97;96662.47;5074618;28;20202;-59
2021/08/31 02:38:42;;;;;;;15.10;13.43;;;;;;;17.68;98.72;96664.91;5073169;28;20175;-59
2021/08/31 02:41:07;;;;;;;16.17;14.50;;;;;;;17.70;98.51;96662.75;5074462;28;20242;-59
2021/08/31 02:43:33;;;;;;;15.33;13.73;;;;;;;17.68;98.08;96667.56;5070544;28;20279;-59
2021/08/31 02:45:58;;;;;;;15.37;13.77;;;;;;;17.67;98.20;96673.94;5074383;28;20195;-60
2021/08/31 02:48:24;;;;;;;17.70;14.10;;;;;;;17.51;98.95;96666.97;5069543;28;20249;-59
2021/08/31 02:50:49;;;;;;;17.33;14.40;;;;;;;17.52;99.27;96662.47;5074306;28;20171;-59
2021/08/31 02:53:14;;;;;;;16.90;15.10;;;;;;;17.50;99.11;96670.72;5073783;28;20656;-58
2021/08/31 02:55:40;;;;;;;16.97;14.27;;;;;;;17.48;99.26;96665.63;5074118;28;20190;-59
2021/08/31 02:58:05;;;;;;;16.73;15.03;;;;;;;17.59;98.99;96665.69;5074194;28;20163;-59
2021/08/31 03:00:32;;;;;;;18.70;14.70;;;;;;;17.54;98.74;96670.97;5074222;28;20579;-58
2021/08/31 03:02:58;;;;;;;18.87;15.70;;;;;;;17.59;98.93;96671.00;5073075;28;20532;-59
2021/08/31 03:05:25;;;;;;;14.63;13.20;;;;;;;17.56;98.93;96663.53;5073973;28;20465;-58
2021/08/31 03:07:52;;;;;;;16.77;14.07;;;;;;;17.41;99.78;96666.94;5074044;28;20474;-59
2021/08/31 03:10:17;;;;;;;17.07;14.50;;;;;;;17.27;100.00;96665.78;5073823;28;20408;-59
2021/08/31 03:12:43;;;;;;;16.13;14.43;;;;;;;17.44;100.00;96674.38;5073564;28;20412;-59
2021/08/31 03:15:08;;;;;;;16.17;14.57;;;;;;;17.50;99.44;96681.34;5073882;28;20183;-59
2021/08/31 03:17:34;;;;;;;15.03;13.53;;;;;;;17.57;99.41;96676.56;5073241;28;20194;-60
2021/08/31 03:19:59;;;;;;;16.60;14.80;;;;;;;17.55;98.73;96675.22;5053962;28;20647;-58
2021/08/31 03:22:25;;;;;;;15.20;13.70;;;;;;;17.55;99.37;96675.22;5053748;28;20159;-59
2021/08/31 03:24:50;;;;;;;16.93;15.03;;;;;;;17.60;99.15;96676.03;5053135;28;20231;-59
2021/08/31 03:27:16;;;;;;;17.63;14.97;;;;;;;17.52;98.90;96671.22;5053704;28;20274;-59
2021/08/31 03:29:41;;;;;;;16.70;14.17;;;;;;;17.54;99.36;96676.31;5053939;28;20169;-59
2021/08/31 03:32:07;;;;;;;16.83;15.10;;;;;;;17.55;98.92;96680.53;5053741;28;20656;-58
2021/08/31 03:34:32;;;;;;;15.10;13.47;;;;;;;17.67;98.67;96684.56;5071882;28;20269;-59
2021/08/31 03:36:58;;;;;;;15.97;14.30;;;;;;;17.64;98.36;96685.09;5072566;28;20167;-59
2021/08/31 03:39:23;;;;;;;15.60;13.80;;;;;;;17.58;98.85;96680.81;5073470;28;20698;-59
2021/08/31 03:41:49;;;;;;;15.67;14.00;;;;;;;17.52;99.42;96683.72;5073503;28;20204;-59
2021/08/31 03:44:14;;;;;;;16.43;14.70;;;;;;;17.51;99.46;96682.91;5072998;28;20198;-58
2021/08/31 03:46:40;;;;;;;17.30;15.50;;;;;;;17.61;99.22;96684.81;5073324;28;20228;-58
2021/08/31 03:49:05;;;;;;;15.90;13.97;;;;;;;17.68;99.08;96686.16;5056021;28;20175;-58
2021/08/31 03:51:30;;;;;;;16.47;14.77;;;;;;;17.63;98.75;96693.34;5057507;28;20163;-58
2021/08/31 03:53:56;;;;;;;17.07;15.27;;;;;;;17.65;98.90;96692.00;5072951;28;20640;-59
2021/08/31 03:56:22;;;;;;;15.67;14.07;;;;;;;17.67;98.18;96683.75;5072695;28;20247;-59
2021/08/31 03:58:47;;;;;;;16.17;14.37;;;;;;;17.64;98.26;96690.41;5073438;28;20171;-59
2021/08/31 04:01:13;;;;;;;16.33;14.37;;;;;;;17.58;98.85;96682.66;5073259;28;20174;-58
2021/08/31 04:03:38;;;;;;;16.53;14.83;;;;;;;17.61;98.56;96684.81;5072828;28;20183;-59
2021/08/31 04:06:03;;;;;;;16.70;14.97;;;;;;;17.62;98.57;96694.38;5073281;28;20185;-58
2021/08/31 04:08:29;;;;;;;16.93;15.17;;;;;;;17.54;98.47;96697.56;5073108;28;20185;-59
2021/08/31 04:10:54;;;;;;;16.83;15.10;;;;;;;17.62;98.58;96695.19;5056449;28;20206;-58
2021/08/31 04:13:19;;;;;;;17.47;15.67;;;;;;;17.52;98.66;96694.34;5072799;28;20697;-59
2021/08/31 04:15:46;;;;;;;17.30;15.27;;;;;;;17.53;98.76;96693.28;5073072;28;20212;-58
2021/08/31 04:18:12;;;;;;;17.57;15.70;;;;;;;17.54;98.20;96694.91;5073269;28;20163;-59
2021/08/31 04:20:37;;;;;;;19.63;16.70;;;;;;;17.38;99.31;96694.00;5073281;28;20522;-58
2021/08/31 04:23:02;;;;;;;18.47;16.43;;;;;;;17.43;98.99;96700.13;5072865;28;20198;-59
2021/08/31 04:25:28;;;;;;;19.43;16.30;;;;;;;17.41;99.14;96698.81;5071734;28;20202;-59
2021/08/31 04:27:56;;;;;;;17.83;15.43;;;;;;;17.42;99.00;96708.38;5053108;28;20666;-58
2021/08/31 04:30:22;;;;;;;16.90;15.10;;;;;;;17.38;99.67;96709.94;5052977;28;20168;-59
2021/08/31 04:32:48;;;;;;;18.37;16.20;;;;;;;17.49;99.21;96711.59;5052484;28;20472;-59
2021/08/31 04:35:13;;;;;;;17.63;15.47;;;;;;;17.46;99.09;96714.75;5053111;28;20194;-58
2021/08/31 04:37:39;;;;;;;17.90;16.00;;;;;;;17.48;99.38;96722.50;5052848;28;20410;-59
2021/08/31 04:40:06;;;;;;;17.30;15.37;;;;;;;17.41;99.18;96718.19;5053112;28;20695;-58
2021/08/31 04:42:31;;;;;;;18.00;14.67;;;;;;;17.52;98.84;96721.72;5072747;28;20429;-59
2021/08/31 04:44:56;;;;;;;19.70;16.23;;;;;;;17.42;98.84;96726.97;5072512;28;20807;-58
2021/08/31 04:47:23;;;;;;;17.03;14.97;;;;;;;17.35;99.58;96721.91;5074016;28;20171;-59
2021/08/31 04:49:48;;;;;;;16.10;14.40;;;;;;;17.27;99.72;96717.06;5076557;28;20232;-58
2021/08/31 04:52:14;;;;;;;16.27;14.67;;;;;;;17.25;100.00;96718.38;5076544;28;20910;-58
2021/08/31 04:54:39;;;;;;;16.60;14.90;;;;;;;17.11;100.00;96722.56;5076239;28;20183;-59
2021/08/31 04:57:05;;;;;;;17.23;15.30;;;;;;;17.11;100.00;96714.59;5075956;28;20261;-59
2021/08/31 04:59:30;;;;;;;17.20;15.40;;;;;;;17.24;100.00;96724.75;5076664;28;20181;-58
2021/08/31 05:01:56;;;;;;;17.60;15.70;;;;;;;17.32;100.00;96725.06;5076339;28;20177;-59
2021/08/31 05:04:27;;;;;;;16.77;14.90;;;;;;;17.50;98.97;96733.69;5075841;28;20195;-59
2021/08/31 05:06:53;;;;;;;18.83;15.20;;;;;;;17.47;99.06;96732.31;5076594;28;20625;-59
2021/08/31 05:09:18;;;;;;;17.40;15.07;;;;;;;17.41;99.05;96728.81;5076287;28;20527;-59
2021/08/31 05:11:43;;;;;;;17.97;16.03;;;;;;;17.46;98.82;96730.72;5058440;28;20174;-59
2021/08/31 05:14:09;;;;;;;20.57;16.07;;;;;;;17.45;99.39;96734.41;5065717;28;20194;-59
2021/08/31 05:16:34;;;;;;;17.57;15.50;;;;;;;17.58;98.82;96731.31;5076328;28;20253;-58
2021/08/31 05:18:59;;;;;;;20.93;15.77;;;;;;;17.57;98.17;96740.34;5076023;28;20258;-59
2021/08/31 05:21:25;;;;;;;23.20;16.63;;;;;;;17.58;98.68;96739.28;5075934;28;20209;-59
2021/08/31 05:23:50;;;;;;;16.77;14.43;;;;;;;17.62;98.00;96744.88;5075816;28;20699;-59
2021/08/31 05:26:15;;;;;;;17.33;15.20;;;;;;;17.65;97.94;96745.16;5075780;28;20716;-59
2021/08/31 05:28:41;;;;;;;19.87;17.77;;;;;;;17.64;97.98;96748.88;5067382;28;20528;-59
2021/08/31 05:31:06;;;;;;;17.93;15.23;;;;;;;17.67;97.69;96753.66;5056116;28;20202;-59
2021/08/31 05:33:31;;;;;;;21.40;16.03;;;;;;;17.61;97.59;96752.03;5055496;28;20172;-59
2021/08/31 05:35:57;;;;;;;24.30;17.47;;;;;;;17.68;97.79;96757.13;5055865;28;20187;-59
2021/08/31 05:38:22;;;;;;;19.30;17.27;;;;;;;17.66;97.68;96756.59;5055932;28;20167;-59
2021/08/31 05:40:48;;;;;;;17.43;15.70;;;;;;;17.60;97.88;96758.44;5055928;28;20232;-58
2021/08/31 05:43:13;;;;;;;18.80;16.83;;;;;;;17.63;97.57;96762.44;5056451;28;20176;-59
2021/08/31 05:45:39;;;;;;;17.10;15.37;;;;;;;17.66;97.57;96761.91;5055351;28;20268;-59
2021/08/31 05:48:04;;;;;;;19.30;17.20;;;;;;;17.67;97.50;96772.28;5060416;28;20171;-59
2021/08/31 05:50:30;;;;;;;21.70;17.87;;;;;;;17.58;98.14;96763.19;5075533;28;20277;-59
2021/08/31 05:52:55;;;;;;;17.83;15.50;;;;;;;17.58;98.01;96762.38;5074989;28;20171;-58
2021/08/31 05:55:20;;;;;;;15.60;13.90;;;;;;;17.63;97.72;96773.84;5075489;28;20541;-59
2021/08/31 05:57:46;;;;;;;17.60;14.77;;;;;;;17.61;98.05;96768.00;5075320;28;20220;-59
2021/08/31 06:00:12;;;;;;;15.10;13.40;;;;;;;17.64;97.87;96767.50;5074172;28;20170;-59
2021/08/31 06:02:43;;;;;;;17.37;14.93;;;;;;;17.54;98.09;96772.75;5072521;28;20203;-59
2021/08/31 06:05:09;;;;;;;17.60;15.70;;;;;;;17.65;98.20;96766.41;5055348;28;20878;-59
2021/08/31 06:07:35;;;;;;;16.00;14.23;;;;;;;17.59;97.68;96770.13;5055338;28;20402;-57
2021/08/31 06:10:04;;;;;;;15.27;13.67;;;;;;;17.69;98.00;96778.13;5055279;28;20561;-58
2021/08/31 06:12:30;;;;;;;14.40;12.90;;;;;;;17.79;97.25;96780.81;5054966;28;20414;-59
2021/08/31 06:14:55;;;;;;;14.13;12.73;;;;;;;17.67;97.06;96784.75;5054503;28;20836;-59
2021/08/31 06:17:22;;;;;;;15.03;13.37;;;;;;;17.66;97.70;96783.16;5054980;28;20171;-58
2021/08/31 06:19:47;;;;;;;17.00;13.40;;;;;;;17.78;96.62;96781.88;5073069;28;20225;-58
2021/08/31 06:22:13;;;;;;;17.90;13.63;;;;;;;17.77;97.12;96784.81;5074764;28;20512;-58
2021/08/31 06:24:38;;;;;;;13.50;12.20;;;;;;;17.68;97.10;96789.84;5074331;28;20207;-58
2021/08/31 06:27:04;;;;;;;13.53;12.13;;;;;;;17.77;96.63;96793.59;5074762;28;20228;-59
2021/08/31 06:29:30;;;;;;;13.60;12.30;;;;;;;17.64;96.84;96794.06;5074665;28;20641;-59
2021/08/31 06:31:56;;;;;;;13.43;12.13;;;;;;;17.69;96.72;96791.41;5074348;28;20443;-61
2021/08/31 06:34:22;;;;;;;14.30;12.43;;;;;;;17.75;96.83;96795.72;5056543;28;20420;-62
2021/08/31 06:36:47;;;;;;;14.37;12.70;;;;;;;17.74;96.55;96794.09;5066726;28;20175;-62
2021/08/31 06:39:13;;;;;;;14.37;12.93;;;;;;;17.64;96.67;96798.56;5074445;28;20920;-62
2021/08/31 06:41:39;;;;;;;14.10;12.60;;;;;;;17.63;96.90;96800.44;5074419;28;20607;-62
2021/08/31 06:44:05;;;;;;;14.07;11.97;;;;;;;17.74;96.56;96799.41;5073832;28;20190;-62
2021/08/31 06:46:31;;;;;;;14.30;12.93;;;;;;;17.78;96.24;96805.81;5063884;28;20167;-62
2021/08/31 06:48:56;;;;;;;13.77;12.37;;;;;;;17.81;96.30;96799.97;5072348;28;20213;-62
2021/08/31 06:51:21;;;;;;;18.93;12.23;;;;;;;17.85;96.62;96801.06;5073429;28;20413;-62
2021/08/31 06:53:47;;;;;;;12.87;11.47;;;;;;;17.84;96.78;96798.66;5073992;28;20163;-62
2021/08/31 06:56:12;;;;;;;14.50;11.90;;;;;;;17.77;97.60;96801.56;5074215;28;20221;-62
2021/08/31 06:58:37;;;;;;;14.13;12.70;;;;;;;17.94;96.68;96802.16;5074230;28;20166;-62
2021/08/31 07:01:03;;;;;;;13.63;12.20;;;;;;;17.90;96.43;96809.03;5074312;28;20249;-62
2021/08/31 07:03:29;;;;;;;13.50;11.23;;;;;;;17.88;97.17;96800.53;5073550;28;20195;-62
2021/08/31 07:05:55;;;;;;;14.70;11.97;;;;;;;17.77;97.36;96809.56;5066794;28;20248;-62
2021/08/31 07:08:20;;;;;;;18.73;12.43;;;;;;;17.95;97.31;96810.94;5054059;28;20401;-62
2021/08/31 07:10:45;;;;;;;14.53;12.90;;;;;;;17.94;97.32;96810.13;5054093;28;20176;-62
2021/08/31 07:13:13;;;;;;;13.97;12.30;;;;;;;18.10;96.65;96814.44;5053641;28;20254;-62
2021/08/31 07:15:38;;;;;;;14.33;12.70;;;;;;;18.00;96.69;96811.75;5053704;28;20637;-60
2021/08/31 07:18:04;;;;;;;12.10;10.83;;;;;;;17.98;97.58;96811.22;5052484;28;20441;-61
2021/08/31 07:20:29;;;;;;;13.47;12.17;;;;;;;17.78;98.24;96813.78;5056557;28;20182;-64
2021/08/31 07:22:55;;;;;;;13.90;12.60;;;;;;;17.84;97.80;96812.75;5057983;28;20183;-64
2021/08/31 07:25:20;;;;;;;12.33;11.13;;;;;;;17.92;97.57;96825.53;5073790;28;20202;-62
2021/08/31 07:27:46;;;;;;;13.03;11.77;;;;;;;17.84;97.40;96820.75;5076262;28;20176;-61
2021/08/31 07:30:12;;;;;;;13.00;11.80;;;;;;;17.76;97.75;96817.75;5061386;28;20614;-62
2021/08/31 07:32:37;;;;;;;12.60;11.30;;;;;;;17.86;97.61;96828.44;5063163;28;20185;-63
2021/08/31 07:35:03;;;;;;;11.13;10.13;;;;;;;17.96;97.65;96828.47;5068410;28;20441;-61
2021/08/31 07:37:29;;;;;;;11.50;10.40;;;;;;;18.05;97.09;96822.41;5064304;28;20197;-64
2021/08/31 07:39:54;;;;;;;12.07;10.87;;;;;;;18.25;96.58;96830.44;5063000;28;20871;-62
2021/08/31 07:42:19;;;;;;;11.70;10.60;;;;;;;18.19;96.24;96834.16;5053089;28;20619;-62
2021/08/31 07:44:45;;;;;;;11.47;10.47;;;;;;;18.06;96.18;96831.97;5060551;28;20217;-64
2021/08/31 07:47:10;;;;;;;11.17;10.07;;;;;;;17.90;97.05;96832.19;5058055;28;20231;-65
2021/08/31 07:49:35;;;;;;;11.00;9.80;;;;;;;18.16;96.45;96842.66;5057644;28;20257;-65
2021/08/31 07:52:01;;;;;;;12.23;9.70;;;;;;;18.40;95.43;96841.13;5058361;28;20190;-65
2021/08/31 07:54:27;;;;;;;11.33;10.23;;;;;;;18.50;95.43;96844.91;5057361;28;20205;-62
2021/08/31 07:56:53;;;;;;;11.17;10.07;;;;;;;18.60;94.53;96848.38;5060338;28;20189;-65
2021/08/31 07:59:18;;;;;;;9.90;8.90;;;;;;;18.63;93.39;96850.50;5060183;28;20262;-65
2021/08/31 08:01:44;;;;;;;9.87;8.60;;;;;;;18.66;94.06;96854.53;5060788;28;20285;-65
2021/08/31 08:04:09;;;;;;;9.70;8.77;;;;;;;18.77;92.58;96856.13;5059596;28;20198;-65
2021/08/31 08:06:35;;;;;;;10.57;8.63;;;;;;;18.81;91.81;96858.00;5057685;28;20186;-65
2021/08/31 08:09:01;;;;;;;9.77;8.63;;;;;;;18.71;91.52;96863.31;5057647;28;20182;-64
2021/08/31 08:11:26;;;;;;;9.20;8.30;;;;;;;18.86;91.70;96865.97;5059599;28;20194;-65
2021/08/31 08:13:52;;;;;;;8.70;7.90;;;;;;;18.91;91.06;96867.88;5060318;28;20177;-65
2021/08/31 08:16:19;;;;;;;8.30;7.57;;;;;;;18.83;90.49;96866.53;5059568;28;20619;-65
2021/08/31 08:18:45;;;;;;;8.37;7.67;;;;;;;18.84;91.12;96859.34;5057460;28;20209;-65
2021/08/31 08:21:10;;;;;;;8.20;7.50;;;;;;;19.02;91.05;96872.91;5057512;28;20491;-63
2021/08/31 08:23:36;;;;;;;9.43;8.37;;;;;;;18.91;90.47;96870.53;5062277;28;20519;-64
2021/08/31 08:26:01;;;;;;;8.50;7.70;;;;;;;18.97;90.47;96874.81;5064549;28;20700;-65
2021/08/31 08:28:26;;;;;;;8.50;7.60;;;;;;;18.97;89.31;96875.56;5059639;28;20182;-62
2021/08/31 08:30:52;;;;;;;8.40;7.67;;;;;;;18.93;89.10;96874.50;5066840;28;20585;-65
2021/08/31 08:33:20;;;;;;;9.03;6.77;;;;;;;19.02;89.59;96874.81;5070124;28;20190;-65
2021/08/31 08:35:47;;;;;;;7.70;7.10;;;;;;;19.30;89.46;96872.38;5070370;28;20954;-66
2021/08/31 08:38:12;;;;;;;7.13;6.53;;;;;;;19.47;88.52;96869.47;5070061;28;20417;-61
2021/08/31 08:40:38;;;;;;;8.73;7.93;;;;;;;19.43;88.01;96879.88;5070110;28;20431;-60
2021/08/31 08:43:05;;;;;;;7.87;7.20;;;;;;;19.36;89.07;96878.53;5070057;28;20179;-63
2021/08/31 08:45:31;;;;;;;8.40;7.63;;;;;;;19.13;87.73;96881.72;5070299;28;20214;-66
2021/08/31 08:47:57;;;;;;;8.17;7.37;;;;;;;18.97;88.61;96888.91;5069829;28;20482;-64
2021/08/31 08:50:23;;;;;;;10.13;7.87;;;;;;;18.97;88.59;96888.91;5070303;28;20190;-62
2021/08/31 08:52:49;;;;;;;7.67;6.87;;;;;;;18.92;89.30;96899.56;5068140;28;20440;-64
2021/08/31 08:55:14;;;;;;;7.60;7.00;;;;;;;19.04;89.29;96902.75;5053065;28;20183;-64
2021/08/31 08:57:40;;;;;;;8.00;7.30;;;;;;;19.09;89.13;96901.97;5053054;28;20206;-63
2021/08/31 09:00:08;;;;;;;8.13;7.33;;;;;;;19.00;89.55;96904.38;5056690;28;20198;-61
2021/08/31 09:02:43;;;;;;;9.33;8.43;;;;;;;19.10;88.80;96909.69;5066824;28;20609;-65
2021/08/31 09:05:28;;;;;;;9.33;8.47;;;;;;;19.17;89.39;96904.91;5056299;28;20494;-62
2021/08/31 09:08:04;;;;;;;9.63;8.53;;;;;;;19.31;89.70;96908.66;5061961;28;20911;-62
2021/08/31 09:10:29;;;;;;;9.63;8.83;;;;;;;19.08;88.71;96911.81;5060687;28;20946;-62
2021/08/31 09:12:54;;;;;;;9.20;8.30;;;;;;;18.95;88.61;96911.56;5061265;28;20426;-62
2021/08/31 09:15:22;;;;;;;11.10;10.00;;;;;;;19.27;89.21;96909.44;5063672;28;20907;-62
2021/08/31 09:18:06;;;;;;;8.23;7.43;;;;;;;19.33;89.36;96903.09;5071378;28;20171;-61
2021/08/31 09:20:33;;;;;;;10.23;9.07;;;;;;;19.42;88.91;96912.13;5060554;28;20928;-62
2021/08/31 09:22:58;;;;;;;10.03;9.23;;;;;;;19.39;88.54;96910.00;5065911;28;20442;-63
2021/08/31 09:25:36;;;;;;;9.50;8.70;;;;;;;19.48;88.70;96910.28;5076579;28;21106;-65
2021/08/31 09:28:17;;;;;;;9.50;8.60;;;;;;;19.68;87.98;96913.69;5071978;28;20224;-63
2021/08/31 09:30:42;;;;;;;8.67;7.77;;;;;;;19.71;87.22;96913.16;5072401;28;20420;-63
2021/08/31 09:33:10;;;;;;;9.07;8.17;;;;;;;19.65;88.18;96916.91;5071996;28;20409;-62
2021/08/31 09:35:41;;;;;;;10.80;9.87;;;;;;;19.56;87.93;96921.19;5072378;28;20194;-62
2021/08/31 09:38:08;;;;;;;10.63;8.30;;;;;;;19.61;87.69;96917.69;5072387;28;20466;-61
2021/08/31 09:40:42;;;;;;;10.03;8.97;;;;;;;19.77;87.45;96925.41;5064307;28;20805;-63
2021/08/31 09:43:17;;;;;;;9.40;8.60;;;;;;;19.87;85.60;96922.75;5074703;28;20427;-63
2021/08/31 09:45:46;;;;;;;9.23;8.40;;;;;;;19.72;85.17;96925.44;5075451;28;20597;-62
2021/08/31 09:48:15;;;;;;;10.83;8.37;;;;;;;19.71;85.78;96917.69;5075584;28;20409;-63
2021/08/31 09:50:46;;;;;;;8.13;7.33;;;;;;;19.71;84.95;96915.81;5075549;28;20922;-63
2021/08/31 09:53:13;;;;;;;8.67;7.93;;;;;;;19.96;84.71;96920.31;5075206;28;20424;-63
2021/08/31 09:55:40;;;;;;;7.30;6.70;;;;;;;19.98;84.66;96921.66;5074804;28;20789;-63
2021/08/31 09:58:16;;;;;;;7.50;6.90;;;;;;;20.04;83.40;96923.22;5075451;28;20416;-63
2021/08/31 10:00:44;;;;;;;10.10;7.87;;;;;;;19.96;81.96;96921.13;5075243;28;20409;-62
2021/08/31 10:03:10;;;;;;;9.70;7.50;;;;;;;19.83;81.57;96927.00;5075128;28;20412;-63
2021/08/31 10:05:37;;;;;;;7.83;7.13;;;;;;;19.77;82.38;96922.75;5075178;28;20468;-63
2021/08/31 10:08:03;;;;;;;7.83;7.13;;;;;;;19.79;82.60;96925.94;5075370;28;20432;-62
2021/08/31 10:10:31;;;;;;;8.07;7.27;;;;;;;19.75;82.14;96932.88;5066143;28;20841;-63
2021/08/31 10:12:58;;;;;;;8.80;8.00;;;;;;;19.55;84.11;96930.25;5060357;28;20433;-62
2021/08/31 10:15:24;;;;;;;8.73;7.83;;;;;;;19.85;83.79;96937.41;5054987;28;20445;-62
2021/08/31 10:17:50;;;;;;;7.87;7.07;;;;;;;19.74;83.03;96936.63;5055031;28;20769;-64
2021/08/31 10:20:25;;;;;;;7.83;7.20;;;;;;;19.55;84.05;96935.56;5055139;28;20434;-62
2021/08/31 10:22:51;;;;;;;9.00;8.10;;;;;;;19.49;84.80;96932.09;5054726;28;20398;-63
2021/08/31 10:25:22;;;;;;;8.70;7.90;;;;;;;19.53;84.81;96934.25;5054677;28;20994;-61
2021/08/31 10:27:47;;;;;;;8.90;8.10;;;;;;;19.61;84.49;96942.50;5069061;28;20504;-63
2021/08/31 10:30:13;;;;;;;9.40;8.53;;;;;;;19.62;84.77;96936.09;5074763;28;20448;-62
2021/08/31 10:32:39;;;;;;;10.73;8.10;;;;;;;19.62;84.84;96930.75;5074478;28;20198;-62
2021/08/31 10:35:05;;;;;;;9.37;8.57;;;;;;;19.63;85.54;96935.03;5074665;28;20702;-62
2021/08/31 10:37:48;;;;;;;8.47;7.67;;;;;;;19.67;85.43;96929.97;5074678;28;20954;-62
2021/08/31 10:40:32;;;;;;;7.37;6.77;;;;;;;19.65;84.05;96930.25;5074911;28;20416;-63
2021/08/31 10:42:58;;;;;;;8.90;7.00;;;;;;;19.48;84.71;96934.25;5055673;28;20428;-62
2021/08/31 10:45:24;;;;;;;8.23;7.43;;;;;;;19.24;84.25;96933.97;5053875;28;20493;-62
2021/08/31 10:47:49;;;;;;;7.57;6.87;;;;;;;19.29;84.74;96926.78;5054537;28;20437;-62
2021/08/31 10:50:16;;;;;;;7.93;7.23;;;;;;;19.52;85.04;96933.44;5054599;28;20171;-63
2021/08/31 10:52:51;;;;;;;8.00;7.20;;;;;;;19.30;83.72;96928.34;5054106;28;20641;-62
2021/08/31 10:55:37;;;;;;;8.43;7.63;;;;;;;19.40;87.39;96925.72;5054178;28;20429;-62
2021/08/31 10:58:10;;;;;;;7.10;6.50;;;;;;;19.72;86.49;96929.94;5054243;28;20796;-62
2021/08/31 11:00:41;;;;;;;8.33;7.63;;;;;;;19.85;86.07;96932.88;5054282;28;20406;-63
2021/08/31 11:03:07;;;;;;;7.03;6.50;;;;;;;19.97;86.15;96940.56;5054002;28;20401;-63
2021/08/31 11:05:35;;;;;;;8.17;7.47;;;;;;;19.96;87.06;96934.47;5053988;28;20460;-63
2021/08/31 11:08:00;;;;;;;7.03;6.43;;;;;;;19.98;85.14;96932.31;5053966;28;20205;-63
2021/08/31 11:10:28;;;;;;;7.40;6.73;;;;;;;20.04;82.19;96936.56;5055148;28;20442;-62
2021/08/31 11:12:57;;;;;;;7.47;6.87;;;;;;;20.07;83.17;96943.22;5073500;28;20544;-62
2021/08/31 11:15:25;;;;;;;7.50;6.73;;;;;;;20.19;82.38;96946.44;5073748;28;20460;-63
2021/08/31 11:17:51;;;;;;;6.87;6.23;;;;;;;20.25;82.11;96935.47;5073658;28;20837;-63
2021/08/31 11:20:30;;;;;;;7.20;6.50;;;;;;;20.33;82.00;96942.91;5071958;28;20500;-63